Terminal Aerodrome Forecast
Issued by NWS

Home | Current Version | Previous Version | Text Only | Print | Product List | Glossary On
Versions: 1 2 3 4 5 6 7 8 9 10 11 12 13 14 15 16 17 18 19 20 21 22 23 24 25 26 27 28
000
FTAK31 PAFG 240528
TAFASC
TAF
PASC 240528Z 2406/2506 10007KT 1/4SM FZFG VV002
     FM241000 18007KT 6SM BR OVC007
     FM241800 23011KT P6SM SCT007 BKN015
     FM250300 25013KT P6SM -SN OVC015=

USA.gov is the U.S. government's official web portal to all federal, state and local government web resources and services.